createdAt,value
2022-08-20T00:00:36.333Z,21.42
2022-08-20T00:01:38.027Z,21.42
2022-08-20T00:02:46.994Z,21.41
2022-08-20T00:03:50.294Z,21.41
2022-08-20T00:04:55.058Z,21.43
2022-08-20T00:06:05.097Z,21.43
2022-08-20T00:07:07.174Z,21.43
2022-08-20T00:08:09.156Z,21.41
2022-08-20T00:09:10.846Z,21.46
2022-08-20T00:10:12.881Z,21.49
2022-08-20T00:11:19.001Z,21.46
2022-08-20T00:12:20.962Z,21.49
2022-08-20T00:13:26.782Z,21.53
2022-08-20T00:14:28.492Z,21.55
2022-08-20T00:15:33.740Z,21.56
2022-08-20T00:16:36.675Z,21.59
2022-08-20T00:17:38.398Z,21.56
2022-08-20T00:18:40.299Z,21.57
2022-08-20T00:19:41.933Z,21.60
2022-08-20T00:20:46.220Z,21.67
2022-08-20T00:21:47.873Z,21.67
2022-08-20T00:22:51.040Z,21.66
2022-08-20T00:23:53.371Z,21.73
2022-08-20T00:24:55.037Z,21.72
2022-08-20T00:25:56.650Z,21.72
2022-08-20T00:26:58.295Z,21.74
2022-08-20T00:28:00.113Z,21.79
2022-08-20T00:29:01.757Z,21.80
2022-08-20T00:30:05.865Z,21.84
2022-08-20T00:31:09.450Z,21.82
2022-08-20T00:32:11.108Z,21.84
2022-08-20T00:33:18.805Z,21.82
2022-08-20T00:34:20.460Z,21.83
2022-08-20T00:35:23.876Z,21.83
2022-08-20T00:36:32.190Z,21.84
2022-08-20T00:37:34.540Z,21.84
2022-08-20T00:38:37.735Z,21.84
2022-08-20T00:39:39.541Z,21.82
2022-08-20T00:40:48.540Z,21.84
2022-08-20T00:41:51.991Z,21.80
2022-08-20T00:42:57.529Z,21.76
2022-08-20T00:44:12.109Z,21.77
2022-08-20T00:45:14.072Z,21.77
2022-08-20T00:46:30.917Z,21.76
2022-08-20T00:47:34.257Z,21.70
2022-08-20T00:48:37.177Z,21.66
2022-08-20T00:49:38.912Z,21.62
2022-08-20T00:50:40.521Z,21.63
2022-08-20T00:51:44.425Z,21.62
2022-08-20T00:52:49.828Z,21.60
2022-08-20T00:53:52.322Z,21.60
2022-08-20T00:54:58.816Z,21.60
2022-08-20T00:56:01.046Z,21.60
2022-08-20T00:57:13.602Z,21.59
2022-08-20T00:58:15.281Z,21.55
2022-08-20T00:59:20.821Z,21.53
2022-08-20T01:00:28.804Z,21.52
2022-08-20T01:01:32.121Z,21.52
2022-08-20T01:02:34.957Z,21.46
2022-08-20T01:03:36.575Z,21.49
2022-08-20T01:04:38.204Z,21.47
2022-08-20T01:05:48.078Z,21.41
2022-08-20T01:06:49.697Z,21.39
2022-08-20T01:07:53.839Z,21.35
2022-08-20T01:08:56.126Z,21.31
2022-08-20T01:09:59.482Z,21.29
2022-08-20T01:11:22.589Z,21.26
2022-08-20T01:12:25.237Z,21.22
2022-08-20T01:13:27.528Z,21.23
2022-08-20T01:14:35.310Z,21.23
2022-08-20T01:15:43.344Z,21.26
2022-08-20T01:16:45.506Z,21.25
2022-08-20T01:17:50.825Z,21.25
2022-08-20T01:18:52.721Z,21.28
2022-08-20T01:19:57.788Z,21.31
2022-08-20T01:21:00.721Z,21.31
2022-08-20T01:22:02.336Z,21.33
2022-08-20T01:23:31.133Z,21.33
2022-08-20T01:24:37.049Z,21.31
2022-08-20T01:25:53.686Z,21.38
2022-08-20T01:26:55.480Z,21.35
2022-08-20T01:27:57.769Z,21.32
2022-08-20T01:29:09.011Z,21.32
2022-08-20T01:30:11.002Z,21.33
2022-08-20T01:31:14.912Z,21.33
2022-08-20T01:32:16.553Z,21.33
2022-08-20T01:33:19.239Z,21.25
2022-08-20T01:34:20.939Z,21.31
2022-08-20T01:35:22.953Z,21.31
2022-08-20T01:36:31.560Z,21.28
2022-08-20T01:37:33.270Z,21.32
2022-08-20T01:38:35.298Z,21.33
2022-08-20T01:39:37.077Z,21.35
2022-08-20T01:40:44.611Z,21.32
2022-08-20T01:42:15.477Z,21.36
2022-08-20T01:43:17.553Z,21.35
2022-08-20T01:44:20.477Z,21.33
2022-08-20T01:45:22.099Z,21.36
2022-08-20T01:46:36.736Z,21.36
2022-08-20T01:47:40.631Z,21.41
2022-08-20T01:48:45.066Z,21.42
2022-08-20T01:49:49.840Z,21.45
2022-08-20T01:51:02.167Z,21.46
2022-08-20T01:52:07.644Z,21.36
2022-08-20T01:53:18.548Z,21.35
2022-08-20T01:54:20.668Z,21.35
2022-08-20T01:55:22.288Z,21.32
2022-08-20T01:56:25.865Z,21.26
2022-08-20T01:57:27.531Z,21.22
2022-08-20T01:58:29.830Z,21.22
2022-08-20T01:59:31.501Z,21.19
2022-08-20T02:00:34.985Z,21.19
2022-08-20T02:01:46.394Z,21.22
2022-08-20T02:02:49.442Z,21.18
2022-08-20T02:03:51.256Z,21.18
2022-08-20T02:04:52.875Z,21.16
2022-08-20T02:05:54.542Z,21.16
2022-08-20T02:06:58.259Z,21.15
2022-08-20T02:08:00.286Z,21.14
2022-08-20T02:09:01.983Z,21.09
2022-08-20T02:10:05.652Z,21.08
2022-08-20T02:11:08.011Z,21.08
2022-08-20T02:12:09.946Z,21.08
2022-08-20T02:13:11.549Z,21.06
2022-08-20T02:14:13.482Z,21.05
2022-08-20T02:15:15.290Z,21.04
2022-08-20T02:16:20.913Z,21.05
2022-08-20T02:17:23.617Z,21.04
2022-08-20T02:18:25.235Z,21.06
2022-08-20T02:19:37.183Z,21.08
2022-08-20T02:20:38.831Z,21.09
2022-08-20T02:21:57.316Z,21.08
2022-08-20T02:22:59.252Z,21.11
2022-08-20T02:24:00.884Z,21.15
2022-08-20T02:25:02.642Z,21.15
2022-08-20T02:26:07.499Z,21.18
2022-08-20T02:27:09.117Z,21.18
2022-08-20T02:28:12.390Z,21.22
2022-08-20T02:29:14.339Z,21.22
2022-08-20T02:30:28.230Z,21.19
2022-08-20T02:31:34.710Z,21.22
2022-08-20T02:32:37.826Z,21.22
2022-08-20T02:33:39.576Z,21.19
2022-08-20T02:34:41.307Z,21.22
2022-08-20T02:35:43.339Z,21.21
2022-08-20T02:36:46.267Z,21.21
2022-08-20T02:37:47.876Z,21.15
2022-08-20T02:38:49.696Z,21.12
2022-08-20T02:39:51.351Z,21.06
2022-08-20T02:40:53.051Z,21.05
2022-08-20T02:41:54.686Z,21.04
2022-08-20T02:42:56.293Z,21.01
2022-08-20T02:43:57.964Z,21.02
2022-08-20T02:44:59.940Z,20.95
2022-08-20T02:46:02.500Z,20.90
2022-08-20T02:47:05.474Z,20.92
2022-08-20T02:48:07.106Z,20.92
2022-08-20T02:49:08.776Z,20.96
2022-08-20T02:50:12.466Z,20.95
2022-08-20T02:51:14.121Z,21.01
2022-08-20T02:52:15.789Z,20.98
2022-08-20T02:53:17.608Z,20.96
2022-08-20T02:54:19.216Z,20.99
2022-08-20T02:55:27.530Z,21.02
2022-08-20T02:56:29.974Z,20.96
2022-08-20T02:57:32.183Z,20.98
2022-08-20T02:58:35.435Z,21.01
2022-08-20T02:59:37.029Z,21.05
2022-08-20T03:00:38.844Z,21.06
2022-08-20T03:01:40.605Z,21.08
2022-08-20T03:02:42.719Z,21.11
2022-08-20T03:03:44.644Z,21.09
2022-08-20T03:04:46.265Z,21.08
2022-08-20T03:05:48.179Z,21.11
2022-08-20T03:06:49.789Z,21.14
2022-08-20T03:07:54.087Z,21.11
2022-08-20T03:08:55.964Z,21.16
2022-08-20T03:09:57.583Z,21.14
2022-08-20T03:10:59.200Z,21.12
2022-08-20T03:12:00.992Z,21.14
2022-08-20T03:13:02.751Z,21.11
2022-08-20T03:14:04.361Z,21.12
2022-08-20T03:15:07.080Z,21.11
2022-08-20T03:16:19.111Z,21.14
2022-08-20T03:17:20.749Z,21.14
2022-08-20T03:18:22.799Z,21.16
2022-08-20T03:19:24.603Z,21.14
2022-08-20T03:20:26.496Z,21.11
2022-08-20T03:21:28.124Z,21.14
2022-08-20T03:22:29.757Z,21.09
2022-08-20T03:23:32.239Z,21.11
2022-08-20T03:24:36.511Z,21.14
2022-08-20T03:25:38.127Z,21.15
2022-08-20T03:26:39.750Z,21.16
2022-08-20T03:27:41.791Z,21.21
2022-08-20T03:28:43.469Z,21.26
2022-08-20T03:29:45.100Z,21.25
2022-08-20T03:30:47.792Z,21.25
2022-08-20T03:31:49.394Z,21.29
2022-08-20T03:32:51.117Z,21.29
2022-08-20T03:33:53.820Z,21.32
2022-08-20T03:34:55.660Z,21.29
2022-08-20T03:35:57.842Z,21.29
2022-08-20T03:36:59.509Z,21.29
2022-08-20T03:38:01.180Z,21.29
2022-08-20T03:39:04.436Z,21.32
2022-08-20T03:40:08.017Z,21.28
2022-08-20T03:41:09.661Z,21.31
2022-08-20T03:42:14.562Z,21.28
2022-08-20T03:43:16.239Z,21.31
2022-08-20T03:44:18.595Z,21.26
2022-08-20T03:45:20.805Z,21.28
2022-08-20T03:46:23.835Z,21.25
2022-08-20T03:47:25.709Z,21.23
2022-08-20T03:48:27.507Z,21.26
2022-08-20T03:49:29.156Z,21.26
2022-08-20T03:50:32.452Z,21.29
2022-08-20T03:51:56.138Z,21.22
2022-08-20T03:52:56.112Z,21.28
2022-08-20T03:53:58.021Z,21.25
2022-08-20T03:54:59.667Z,21.28
2022-08-20T03:56:03.672Z,21.19
2022-08-20T03:57:12.981Z,21.26
2022-08-20T03:58:14.798Z,21.25
2022-08-20T03:59:16.422Z,21.29
2022-08-20T04:00:24.341Z,21.29
2022-08-20T04:01:44.334Z,21.26
2022-08-20T04:02:47.664Z,21.21
2022-08-20T04:03:53.377Z,21.18
2022-08-20T04:04:56.770Z,21.14
2022-08-20T04:05:58.938Z,21.08
2022-08-20T04:07:00.582Z,21.06
2022-08-20T04:08:03.253Z,21.06
2022-08-20T04:09:05.273Z,21.01
2022-08-20T04:10:10.036Z,20.96
2022-08-20T04:11:11.711Z,20.99
2022-08-20T04:12:13.339Z,21.05
2022-08-20T04:13:15.304Z,20.99
2022-08-20T04:14:19.545Z,21.05
2022-08-20T04:15:24.652Z,21.01
2022-08-20T04:16:27.563Z,20.98
2022-08-20T04:17:29.239Z,20.94
2022-08-20T04:18:31.058Z,20.99
2022-08-20T04:19:34.360Z,21.02
2022-08-20T04:20:37.340Z,20.98
2022-08-20T04:21:39.727Z,20.99
2022-08-20T04:22:41.563Z,20.98
2022-08-20T04:23:52.764Z,20.98
2022-08-20T04:24:54.371Z,20.95
2022-08-20T04:25:56.629Z,20.91
2022-08-20T04:26:58.870Z,20.91
2022-08-20T04:28:02.074Z,20.95
2022-08-20T04:29:04.241Z,20.94
2022-08-20T04:30:07.263Z,20.81
2022-08-20T04:31:09.044Z,20.87
2022-08-20T04:32:11.058Z,20.82
2022-08-20T04:33:12.809Z,20.82
2022-08-20T04:34:14.587Z,20.81
2022-08-20T04:35:18.146Z,20.82
2022-08-20T04:36:19.788Z,20.80
2022-08-20T04:37:22.041Z,20.80
2022-08-20T04:38:23.714Z,20.74
2022-08-20T04:39:25.425Z,20.81
2022-08-20T04:40:45.428Z,20.80
2022-08-20T04:41:47.193Z,20.82
2022-08-20T04:42:48.870Z,20.84
2022-08-20T04:43:56.068Z,20.84
2022-08-20T04:44:57.671Z,20.87
2022-08-20T04:46:01.322Z,20.85
2022-08-20T04:47:03.021Z,20.84
2022-08-20T04:48:05.677Z,20.84
2022-08-20T04:49:07.478Z,20.82
2022-08-20T04:50:10.583Z,20.80
2022-08-20T04:51:15.165Z,20.77
2022-08-20T04:52:16.868Z,20.80
2022-08-20T04:53:22.718Z,20.77
2022-08-20T04:54:27.177Z,20.81
2022-08-20T04:55:29.320Z,20.82
2022-08-20T04:56:34.861Z,20.87
2022-08-20T04:57:39.665Z,20.87
2022-08-20T04:58:41.675Z,20.85
2022-08-20T04:59:44.234Z,20.88
2022-08-20T05:00:50.359Z,20.90
2022-08-20T05:01:51.993Z,20.85
2022-08-20T05:02:53.606Z,20.87
2022-08-20T05:03:55.371Z,20.90
2022-08-20T05:04:57.083Z,20.94
2022-08-20T05:05:59.027Z,20.98
2022-08-20T05:07:00.649Z,20.96
2022-08-20T05:08:02.576Z,20.96
2022-08-20T05:09:05.014Z,20.96
2022-08-20T05:10:07.324Z,21.02
2022-08-20T05:11:34.940Z,21.02
2022-08-20T05:12:31.368Z,21.05
2022-08-20T05:13:32.971Z,21.08
2022-08-20T05:14:34.573Z,21.04
2022-08-20T05:15:37.026Z,20.98
2022-08-20T05:16:39.007Z,20.99
2022-08-20T05:17:41.548Z,21.01
2022-08-20T05:18:43.358Z,21.02
2022-08-20T05:19:46.635Z,21.04
2022-08-20T05:20:48.679Z,21.08
2022-08-20T05:21:53.768Z,21.11
2022-08-20T05:22:56.264Z,21.16
2022-08-20T05:23:57.895Z,21.16
2022-08-20T05:24:59.728Z,21.15
2022-08-20T05:26:01.502Z,21.15
2022-08-20T05:27:05.059Z,21.19
2022-08-20T05:28:32.874Z,21.26
2022-08-20T05:29:38.550Z,21.32
2022-08-20T05:30:40.977Z,21.33
2022-08-20T05:31:42.900Z,21.35
2022-08-20T05:32:47.089Z,21.42
2022-08-20T05:33:51.182Z,21.46
2022-08-20T05:34:52.974Z,21.47
2022-08-20T05:35:54.660Z,21.46
2022-08-20T05:36:56.304Z,21.49
2022-08-20T05:37:58.036Z,21.52
2022-08-20T05:38:59.824Z,21.53
2022-08-20T05:40:01.475Z,21.53
2022-08-20T05:41:04.674Z,21.50
2022-08-20T05:42:06.309Z,21.55
2022-08-20T05:43:08.297Z,21.53
2022-08-20T05:44:11.027Z,21.59
2022-08-20T05:45:12.739Z,21.56
2022-08-20T05:46:17.474Z,21.59
2022-08-20T05:47:19.142Z,21.60
2022-08-20T05:48:23.744Z,21.63
2022-08-20T05:49:25.725Z,21.63
2022-08-20T05:50:27.393Z,21.67
2022-08-20T05:51:30.012Z,21.66
2022-08-20T05:52:31.980Z,21.69
2022-08-20T05:53:34.350Z,21.69
2022-08-20T05:54:38.078Z,21.63
2022-08-20T05:55:39.880Z,21.69
2022-08-20T05:56:41.570Z,21.73
2022-08-20T05:57:43.167Z,21.73
2022-08-20T05:58:44.843Z,21.70
2022-08-20T05:59:46.735Z,21.70
2022-08-20T06:00:49.077Z,21.73
2022-08-20T06:01:50.815Z,21.76
2022-08-20T06:03:10.988Z,21.74
2022-08-20T06:04:32.937Z,21.80
2022-08-20T06:05:34.887Z,21.83
2022-08-20T06:06:46.029Z,21.79
2022-08-20T06:07:48.329Z,21.79
2022-08-20T06:08:49.939Z,21.87
2022-08-20T06:09:52.648Z,21.90
2022-08-20T06:10:54.335Z,21.94
2022-08-20T06:11:59.202Z,21.97
2022-08-20T06:13:01.111Z,22.00
2022-08-20T06:14:03.890Z,22.04
2022-08-20T06:15:06.877Z,22.10
2022-08-20T06:16:08.510Z,22.16
2022-08-20T06:17:13.280Z,22.21
2022-08-20T06:18:28.440Z,22.27
2022-08-20T06:19:32.408Z,22.28
2022-08-20T06:20:35.761Z,22.33
2022-08-20T06:21:37.524Z,22.40
2022-08-20T06:22:39.240Z,22.35
2022-08-20T06:23:56.578Z,22.40
2022-08-20T06:25:01.205Z,22.38
2022-08-20T06:26:03.269Z,22.40
2022-08-20T06:27:05.331Z,22.37
2022-08-20T06:28:06.982Z,22.33
2022-08-20T06:29:08.700Z,22.25
2022-08-20T06:30:12.243Z,22.27
2022-08-20T06:31:13.872Z,22.28
2022-08-20T06:32:15.751Z,22.31
2022-08-20T06:33:17.384Z,22.22
2022-08-20T06:34:19.116Z,22.20
2022-08-20T06:35:20.722Z,22.27
2022-08-20T06:36:22.388Z,22.27
2022-08-20T06:37:31.110Z,22.33
2022-08-20T06:38:33.280Z,22.37
2022-08-20T06:39:40.320Z,22.38
2022-08-20T06:40:42.060Z,22.44
2022-08-20T06:41:44.071Z,22.45
2022-08-20T06:42:48.622Z,22.51
2022-08-20T06:43:54.053Z,22.58
2022-08-20T06:44:55.711Z,22.61
2022-08-20T06:45:57.896Z,22.62
2022-08-20T06:47:04.085Z,22.68
2022-08-20T06:48:08.507Z,22.71
2022-08-20T06:49:10.134Z,22.75
2022-08-20T06:50:23.114Z,22.79
2022-08-20T06:51:24.815Z,22.79
2022-08-20T06:52:51.678Z,22.78
2022-08-20T06:53:48.207Z,22.78
2022-08-20T06:54:49.949Z,22.81
2022-08-20T06:55:55.509Z,22.85
2022-08-20T06:56:57.252Z,22.86
2022-08-20T06:57:59.577Z,22.84
2022-08-20T06:59:01.469Z,22.92
2022-08-20T07:00:05.972Z,22.92
2022-08-20T07:01:09.423Z,22.95
2022-08-20T07:02:12.337Z,23.00
2022-08-20T07:03:16.719Z,23.00
2022-08-20T07:04:18.362Z,23.05
2022-08-20T07:05:20.013Z,23.08
2022-08-20T07:06:21.694Z,23.08
2022-08-20T07:07:23.342Z,23.09
2022-08-20T07:08:26.466Z,23.05
2022-08-20T07:09:28.390Z,23.02
2022-08-20T07:10:30.378Z,23.00
2022-08-20T07:11:32.131Z,23.02
2022-08-20T07:12:35.043Z,22.95
2022-08-20T07:13:37.933Z,23.02
2022-08-20T07:14:39.555Z,22.99
2022-08-20T07:15:41.205Z,22.98
2022-08-20T07:16:43.040Z,22.95
2022-08-20T07:17:52.008Z,22.95
2022-08-20T07:18:53.635Z,22.95
2022-08-20T07:19:55.455Z,22.96
2022-08-20T07:20:57.538Z,22.92
2022-08-20T07:21:59.424Z,22.95
2022-08-20T07:23:01.112Z,22.95
2022-08-20T07:24:03.516Z,22.94
2022-08-20T07:25:06.177Z,22.91
2022-08-20T07:26:08.479Z,22.82
2022-08-20T07:27:10.310Z,22.76
2022-08-20T07:28:22.217Z,22.68
2022-08-20T07:29:43.853Z,22.67
2022-08-20T07:31:12.324Z,22.62
2022-08-20T07:32:33.852Z,22.61
2022-08-20T07:33:40.539Z,22.52
2022-08-20T07:34:43.661Z,22.54
2022-08-20T07:35:48.946Z,22.54
2022-08-20T07:36:50.636Z,22.51
2022-08-20T07:37:52.355Z,22.49
2022-08-20T07:38:54.463Z,22.47
2022-08-20T07:39:56.721Z,22.47
2022-08-20T07:41:02.863Z,22.41
2022-08-20T07:42:07.247Z,22.37
2022-08-20T07:43:10.894Z,22.33
2022-08-20T07:44:13.180Z,22.22
2022-08-20T07:45:15.359Z,22.22
2022-08-20T07:46:20.581Z,22.11
2022-08-20T07:47:22.599Z,22.04
2022-08-20T07:48:31.472Z,22.01
2022-08-20T07:49:38.333Z,21.97
2022-08-20T07:50:40.089Z,21.84
2022-08-20T07:51:41.733Z,21.83
2022-08-20T07:52:43.430Z,21.80
2022-08-20T07:53:46.506Z,21.79
2022-08-20T07:54:48.318Z,21.79
2022-08-20T07:55:58.726Z,21.72
2022-08-20T07:57:03.335Z,21.66
2022-08-20T07:58:11.001Z,21.65
2022-08-20T07:59:13.133Z,21.62
2022-08-20T08:00:15.487Z,21.59
2022-08-20T08:01:21.422Z,21.57
2022-08-20T08:02:23.938Z,21.53
2022-08-20T08:03:39.884Z,21.50
2022-08-20T08:04:48.661Z,21.49
2022-08-20T08:05:51.889Z,21.49
2022-08-20T08:06:53.563Z,21.45
2022-08-20T08:07:55.817Z,21.45
2022-08-20T08:08:59.568Z,21.45
2022-08-20T08:10:01.800Z,21.43
2022-08-20T08:11:03.530Z,21.41
2022-08-20T08:12:05.428Z,21.41
2022-08-20T08:13:08.402Z,21.36
2022-08-20T08:14:10.265Z,21.33
2022-08-20T08:15:14.369Z,21.33
2022-08-20T08:16:16.116Z,21.31
2022-08-20T08:17:17.997Z,21.33
2022-08-20T08:18:21.798Z,21.31
2022-08-20T08:19:23.452Z,21.28
2022-08-20T08:20:26.179Z,21.18
2022-08-20T08:21:28.580Z,21.11
2022-08-20T08:22:32.967Z,21.05
2022-08-20T08:23:35.052Z,20.99
2022-08-20T08:24:36.689Z,20.95
2022-08-20T08:25:39.657Z,20.92
2022-08-20T08:26:41.341Z,20.92
2022-08-20T08:27:43.772Z,20.87
2022-08-20T08:28:45.580Z,20.81
2022-08-20T08:29:49.775Z,20.78
2022-08-20T08:30:52.321Z,20.80
2022-08-20T08:31:54.046Z,20.77
2022-08-20T08:33:14.201Z,20.80
2022-08-20T08:34:15.877Z,20.80
2022-08-20T08:35:17.775Z,20.82
2022-08-20T08:36:19.541Z,20.82
2022-08-20T08:37:21.138Z,20.81
2022-08-20T08:38:25.873Z,20.82
2022-08-20T08:39:30.320Z,20.81
2022-08-20T08:40:36.690Z,20.78
2022-08-20T08:41:49.406Z,20.75
2022-08-20T08:42:58.278Z,20.72
2022-08-20T08:44:12.759Z,20.74
2022-08-20T08:45:16.995Z,20.72
2022-08-20T08:46:22.638Z,20.72
2022-08-20T08:47:30.605Z,20.72
2022-08-20T08:48:35.579Z,20.74
2022-08-20T08:49:38.018Z,20.75
2022-08-20T08:50:53.323Z,20.70
2022-08-20T08:52:23.093Z,20.71
2022-08-20T08:53:28.132Z,20.70
2022-08-20T08:54:31.351Z,20.67
2022-08-20T08:55:32.984Z,20.67
2022-08-20T08:56:35.576Z,20.60
2022-08-20T08:57:37.285Z,20.63
2022-08-20T08:58:38.995Z,20.65
2022-08-20T08:59:53.872Z,20.68
2022-08-20T09:01:55.392Z,20.67
2022-08-20T09:02:35.536Z,20.65
2022-08-20T09:03:37.236Z,20.67
2022-08-20T09:04:40.067Z,20.55
2022-08-20T09:05:51.470Z,20.52
2022-08-20T09:06:53.601Z,20.57
2022-08-20T09:07:55.255Z,20.52
2022-08-20T09:09:02.307Z,20.48
2022-08-20T09:10:04.176Z,20.50
2022-08-20T09:11:07.353Z,20.51
2022-08-20T09:12:19.033Z,20.50
2022-08-20T09:13:20.707Z,20.50
2022-08-20T09:14:25.070Z,20.48
2022-08-20T09:15:27.205Z,20.47
2022-08-20T09:16:30.058Z,20.47
2022-08-20T09:17:50.785Z,20.45
2022-08-20T09:18:53.641Z,20.47
2022-08-20T09:19:55.276Z,20.47
2022-08-20T09:20:56.911Z,20.51
2022-08-20T09:21:58.567Z,20.52
2022-08-20T09:23:00.212Z,20.57
2022-08-20T09:24:01.914Z,20.61
2022-08-20T09:25:03.742Z,20.64
2022-08-20T09:26:05.564Z,20.57
2022-08-20T09:27:07.213Z,20.61
2022-08-20T09:28:08.864Z,20.67
2022-08-20T09:29:11.378Z,20.64
2022-08-20T09:30:14.006Z,20.67
2022-08-20T09:31:16.842Z,20.67
2022-08-20T09:32:21.041Z,20.63
2022-08-20T09:33:23.022Z,20.67
2022-08-20T09:34:25.170Z,20.55
2022-08-20T09:35:27.531Z,20.55
2022-08-20T09:36:32.620Z,20.58
2022-08-20T09:37:37.481Z,20.48
2022-08-20T09:38:39.504Z,20.52
2022-08-20T09:39:41.325Z,20.44
2022-08-20T09:40:43.047Z,20.45
2022-08-20T09:41:44.653Z,20.45
2022-08-20T09:42:46.309Z,20.48
2022-08-20T09:43:47.948Z,20.39
2022-08-20T09:44:49.763Z,20.41
2022-08-20T09:45:51.494Z,20.48
2022-08-20T09:46:53.129Z,20.45
2022-08-20T09:47:56.510Z,20.51
2022-08-20T09:48:58.960Z,20.50
2022-08-20T09:50:00.583Z,20.47
2022-08-20T09:51:02.331Z,20.36
2022-08-20T09:52:05.162Z,20.34
2022-08-20T09:53:07.064Z,20.31
2022-08-20T09:54:08.705Z,20.31
2022-08-20T09:55:28.478Z,20.34
2022-08-20T09:56:30.098Z,20.33
2022-08-20T09:57:31.949Z,20.33
2022-08-20T09:58:36.458Z,20.37
2022-08-20T09:59:38.079Z,20.33
2022-08-20T10:00:40.158Z,20.30
2022-08-20T10:01:42.052Z,20.29
2022-08-20T10:02:43.780Z,20.29
2022-08-20T10:03:48.161Z,20.27
2022-08-20T10:04:49.819Z,20.30
2022-08-20T10:05:52.451Z,20.31
2022-08-20T10:06:54.127Z,20.24
2022-08-20T10:07:55.895Z,20.26
2022-08-20T10:08:57.634Z,20.21
2022-08-20T10:09:59.244Z,20.24
2022-08-20T10:11:01.858Z,20.08
2022-08-20T10:12:04.246Z,20.03
2022-08-20T10:13:06.134Z,20.08
2022-08-20T10:14:09.204Z,20.09
2022-08-20T10:15:11.118Z,20.16
2022-08-20T10:16:12.884Z,20.20
2022-08-20T10:17:14.518Z,20.31
2022-08-20T10:18:16.163Z,20.39
2022-08-20T10:19:17.782Z,20.54
2022-08-20T10:20:19.768Z,20.67
2022-08-20T10:21:21.530Z,20.77
2022-08-20T10:22:23.234Z,20.87
2022-08-20T10:23:24.899Z,20.99
2022-08-20T10:24:26.655Z,21.14
2022-08-20T10:25:28.955Z,21.26
2022-08-20T10:26:30.644Z,21.43
2022-08-20T10:27:32.720Z,21.49
2022-08-20T10:28:34.502Z,21.59
2022-08-20T10:29:36.128Z,21.69
2022-08-20T10:30:37.837Z,21.82
2022-08-20T10:31:39.660Z,21.86
2022-08-20T10:32:42.740Z,21.92
2022-08-20T10:33:44.395Z,21.98
2022-08-20T10:34:46.537Z,21.96
2022-08-20T10:35:48.234Z,21.86
2022-08-20T10:36:49.942Z,21.83
2022-08-20T10:37:51.985Z,21.89
2022-08-20T10:38:53.692Z,21.97
2022-08-20T10:39:55.490Z,21.98
2022-08-20T10:40:57.202Z,21.97
2022-08-20T10:41:58.871Z,22.01
2022-08-20T10:43:00.503Z,22.11
2022-08-20T10:44:02.509Z,22.08
2022-08-20T10:45:04.449Z,22.03
2022-08-20T10:46:06.288Z,22.08
2022-08-20T10:47:19.951Z,22.17
2022-08-20T10:48:22.536Z,22.20
2022-08-20T10:49:24.150Z,22.21
2022-08-20T10:50:25.846Z,22.24
2022-08-20T10:51:32.636Z,22.25
2022-08-20T10:52:34.700Z,22.20
2022-08-20T10:53:36.559Z,22.18
2022-08-20T10:54:42.170Z,22.20
2022-08-20T10:55:43.964Z,22.18
2022-08-20T10:56:45.721Z,22.07
2022-08-20T10:57:47.441Z,22.13
2022-08-20T10:58:49.123Z,22.10
2022-08-20T10:59:51.637Z,22.21
2022-08-20T11:00:53.409Z,22.21
2022-08-20T11:01:55.111Z,22.33
2022-08-20T11:02:56.836Z,22.31
2022-08-20T11:03:58.544Z,22.34
2022-08-20T11:05:00.155Z,22.38
2022-08-20T11:06:02.288Z,22.31
2022-08-20T11:07:11.789Z,22.33
2022-08-20T11:08:13.515Z,22.30
2022-08-20T11:09:15.146Z,22.31
2022-08-20T11:10:16.822Z,22.38
2022-08-20T11:11:18.457Z,22.38
2022-08-20T11:12:20.738Z,22.40
2022-08-20T11:13:22.997Z,22.34
2022-08-20T11:14:24.654Z,22.43
2022-08-20T11:15:26.531Z,22.47
2022-08-20T11:16:28.195Z,22.58
2022-08-20T11:17:31.860Z,22.57
2022-08-20T11:18:38.840Z,22.55
2022-08-20T11:19:41.716Z,22.64
2022-08-20T11:20:43.343Z,22.58
2022-08-20T11:21:45.067Z,22.47
2022-08-20T11:22:47.173Z,22.52
2022-08-20T11:23:48.857Z,22.54
2022-08-20T11:24:50.495Z,22.55
2022-08-20T11:25:52.153Z,22.49
2022-08-20T11:26:53.805Z,22.49
2022-08-20T11:27:56.078Z,22.52
2022-08-20T11:28:57.840Z,22.58
2022-08-20T11:29:59.956Z,22.62
2022-08-20T11:31:01.798Z,22.57
2022-08-20T11:32:04.459Z,22.57
2022-08-20T11:33:10.392Z,22.54
2022-08-20T11:34:12.905Z,22.62
2022-08-20T11:35:41.090Z,22.57
2022-08-20T11:36:37.185Z,22.61
2022-08-20T11:37:38.881Z,22.61
2022-08-20T11:38:41.502Z,22.67
2022-08-20T11:39:43.243Z,22.67
2022-08-20T11:40:46.834Z,22.65
2022-08-20T11:41:48.722Z,22.71
2022-08-20T11:44:20.412Z,22.81
2022-08-20T11:45:23.305Z,22.91
2022-08-20T11:46:28.564Z,22.99
2022-08-20T11:47:30.453Z,23.06
2022-08-20T11:48:32.383Z,23.13
2022-08-20T11:49:35.085Z,23.16
2022-08-20T11:50:36.703Z,23.02
2022-08-20T11:51:49.191Z,23.09
2022-08-20T11:52:51.656Z,23.15
2022-08-20T11:53:53.788Z,23.05
2022-08-20T11:54:56.086Z,23.05
2022-08-20T11:55:58.937Z,23.06
2022-08-20T11:57:00.555Z,23.15
2022-08-20T11:58:02.213Z,23.08
2022-08-20T11:59:03.847Z,23.09
2022-08-20T12:00:10.909Z,23.12
2022-08-20T12:01:12.866Z,23.16
2022-08-20T12:02:14.543Z,23.18
2022-08-20T12:03:16.291Z,23.20
2022-08-20T12:04:17.944Z,23.18
2022-08-20T12:05:19.813Z,23.24
2022-08-20T12:06:21.480Z,23.15
2022-08-20T12:07:24.172Z,23.06
2022-08-20T12:08:28.007Z,22.98
2022-08-20T12:09:29.892Z,23.03
2022-08-20T12:10:31.621Z,23.05
2022-08-20T12:11:33.368Z,23.03
2022-08-20T12:12:35.102Z,23.02
2022-08-20T12:13:48.299Z,22.94
2022-08-20T12:14:52.057Z,22.99
2022-08-20T12:15:55.043Z,22.88
2022-08-20T12:16:56.896Z,22.95
2022-08-20T12:17:58.568Z,22.95
2022-08-20T12:19:00.220Z,22.89
2022-08-20T12:20:06.511Z,22.89
2022-08-20T12:21:08.199Z,22.95
2022-08-20T12:22:23.751Z,22.99
2022-08-20T12:23:27.258Z,23.05
2022-08-20T12:24:29.251Z,23.05
2022-08-20T12:25:30.989Z,23.10
2022-08-20T12:26:32.663Z,23.12
2022-08-20T12:27:34.564Z,23.09
2022-08-20T12:28:36.192Z,23.15
2022-08-20T12:29:39.048Z,23.10
2022-08-20T12:30:40.796Z,23.13
2022-08-20T12:31:42.424Z,23.16
2022-08-20T12:32:44.739Z,23.19
2022-08-20T12:33:46.373Z,23.03
2022-08-20T12:34:48.046Z,23.08
2022-08-20T12:35:49.738Z,23.02
2022-08-20T12:36:51.580Z,22.95
2022-08-20T12:37:53.258Z,23.00
2022-08-20T12:38:54.897Z,23.03
2022-08-20T12:39:58.566Z,23.00
2022-08-20T12:41:00.872Z,23.03
2022-08-20T12:42:03.289Z,23.03
2022-08-20T12:43:05.376Z,23.10
2022-08-20T12:44:07.185Z,23.13
2022-08-20T12:45:15.054Z,23.00
2022-08-20T12:46:16.769Z,23.08
2022-08-20T12:47:27.738Z,23.06
2022-08-20T12:48:29.360Z,23.10
2022-08-20T12:49:30.971Z,23.09
2022-08-20T12:50:32.869Z,23.00
2022-08-20T12:51:34.489Z,23.06
2022-08-20T12:52:36.195Z,22.99
2022-08-20T12:53:38.422Z,23.09
2022-08-20T12:54:40.165Z,23.02
2022-08-20T12:55:41.810Z,22.94
2022-08-20T12:56:43.558Z,22.98
2022-08-20T12:57:50.330Z,22.95
2022-08-20T12:58:51.948Z,22.96
2022-08-20T12:59:54.899Z,23.03
2022-08-20T13:00:56.524Z,22.99
2022-08-20T13:01:58.561Z,22.92
2022-08-20T13:03:15.731Z,22.99
2022-08-20T13:04:17.363Z,23.02
2022-08-20T13:05:19.083Z,23.02
2022-08-20T13:06:20.712Z,23.00
2022-08-20T13:07:24.448Z,23.10
2022-08-20T13:08:26.203Z,23.09
2022-08-20T13:09:28.515Z,23.08
2022-08-20T13:10:32.648Z,23.05
2022-08-20T13:11:34.349Z,23.05
2022-08-20T13:12:36.502Z,23.05
2022-08-20T13:13:38.197Z,23.00
2022-08-20T13:14:40.077Z,23.00
2022-08-20T13:15:41.709Z,22.98
2022-08-20T13:16:43.377Z,23.02
2022-08-20T13:17:45.489Z,23.05
2022-08-20T13:18:47.479Z,23.05
2022-08-20T13:19:49.160Z,23.09
2022-08-20T13:20:50.854Z,23.13
2022-08-20T13:21:54.769Z,23.16
2022-08-20T13:22:57.134Z,23.20
2022-08-20T13:23:58.958Z,23.16
2022-08-20T13:25:00.646Z,23.19
2022-08-20T13:26:02.318Z,23.20
2022-08-20T13:27:06.078Z,23.20
2022-08-20T13:28:08.159Z,23.16
2022-08-20T13:29:09.841Z,23.18
2022-08-20T13:30:14.767Z,23.23
2022-08-20T13:31:16.446Z,23.22
2022-08-20T13:32:18.217Z,23.26
2022-08-20T13:33:19.823Z,23.23
2022-08-20T13:34:21.443Z,23.24
2022-08-20T13:35:23.131Z,23.26
2022-08-20T13:36:24.798Z,23.30
2022-08-20T13:37:28.126Z,23.29
2022-08-20T13:38:30.017Z,23.26
2022-08-20T13:39:31.638Z,23.27
2022-08-20T13:40:33.324Z,23.31
2022-08-20T13:41:35.016Z,23.26